Time;durP1;ratioP1;P1;durP2;ratioP2;P2;SDS_P1;SDS_P2;PMS_P1;PMS_P2;Temp;Humidity;BMP_temperature;BMP_pressure;BME280_temperature;BME280_humidity;BME280_pressure;Samples;Min_cycle;Max_cycle;Signal;HPM_P1;HPM_P2
2023/07/13 00:00:17;;;;;;;12.80;5.70;;;24.30;90.90;;;;;;5005796;28;20110;-57
2023/07/13 00:02:43;;;;;;;16.77;5.72;;;24.30;90.90;;;;;;5006650;28;20039;-57
2023/07/13 00:05:09;;;;;;;18.70;6.35;;;24.30;90.90;;;;;;5006239;28;20041;-57
2023/07/13 00:07:35;;;;;;;14.10;5.43;;;24.30;90.90;;;;;;5005497;28;20034;-57
2023/07/13 00:10:00;;;;;;;21.38;5.85;;;24.30;90.90;;;;;;5005477;28;20078;-56
2023/07/13 00:12:31;;;;;;;14.10;5.93;;;24.30;90.80;;;;;;5005526;28;20042;-57
2023/07/13 00:15:04;;;;;;;11.95;5.65;;;24.30;91.10;;;;;;5005608;28;20034;-57
2023/07/13 00:17:29;;;;;;;16.35;5.25;;;24.30;90.70;;;;;;5005562;28;20506;-57
2023/07/13 00:19:55;;;;;;;13.68;5.60;;;24.30;90.70;;;;;;5012967;28;20033;-56
2023/07/13 00:22:21;;;;;;;16.60;5.20;;;24.20;90.60;;;;;;5025280;28;20042;-57
2023/07/13 00:24:47;;;;;;;16.65;5.70;;;24.20;90.60;;;;;;5024499;28;20034;-56
2023/07/13 00:27:14;;;;;;;15.93;5.10;;;24.20;90.60;;;;;;5012473;28;20049;-57
2023/07/13 00:29:40;;;;;;;19.40;5.45;;;24.10;90.60;;;;;;5007477;28;20034;-57
2023/07/13 00:32:06;;;;;;;16.08;5.55;;;24.20;90.60;;;;;;5024286;28;20037;-57
2023/07/13 00:34:32;;;;;;;17.65;5.38;;;24.20;90.70;;;;;;5009611;28;20430;-57
2023/07/13 00:36:58;;;;;;;8.90;4.40;;;24.20;90.70;;;;;;5006999;28;20025;-57
2023/07/13 00:39:24;;;;;;;10.80;4.32;;;24.20;90.70;;;;;;5011621;28;20465;-57
2023/07/13 00:41:49;;;;;;;16.17;4.25;;;24.10;90.70;;;;;;5021424;28;20040;-57
2023/07/13 00:44:15;;;;;;;12.13;5.00;;;24.10;90.60;;;;;;5016601;28;20121;-57
2023/07/13 00:46:41;;;;;;;7.35;4.00;;;24.10;90.60;;;;;;5025043;28;20034;-57
2023/07/13 00:49:13;;;;;;;11.85;4.90;;;24.10;90.60;;;;;;5025574;28;20041;-57
2023/07/13 00:52:03;;;;;;;12.82;4.80;;;24.10;90.60;;;;;;5006743;28;20034;-57
2023/07/13 00:54:34;;;;;;;8.90;5.43;;;24.10;90.60;;;;;;5024356;28;20042;-57
2023/07/13 00:57:01;;;;;;;10.75;5.25;;;24.10;90.50;;;;;;5024334;28;20408;-56
2023/07/13 00:59:27;;;;;;;8.10;4.97;;;24.10;90.50;;;;;;5006793;28;20033;-57
2023/07/13 01:01:52;;;;;;;14.60;4.82;;;24.10;90.60;;;;;;5023868;28;20026;-57
2023/07/13 01:04:18;;;;;;;10.48;4.40;;;24.10;90.70;;;;;;5024172;28;20037;-56
2023/07/13 01:06:44;;;;;;;11.30;4.68;;;24.10;90.60;;;;;;5024721;28;20327;-57
2023/07/13 01:09:10;;;;;;;12.45;4.60;;;24.10;90.60;;;;;;5023970;28;20034;-56
2023/07/13 01:11:35;;;;;;;10.48;4.25;;;24.00;90.60;;;;;;5015593;28;20030;-57
2023/07/13 01:14:01;;;;;;;12.75;4.63;;;24.00;90.60;;;;;;5007654;28;20057;-56
2023/07/13 01:16:29;;;;;;;10.68;5.10;;;24.00;90.60;;;;;;5024273;28;20022;-56
2023/07/13 01:18:58;;;;;;;12.27;4.80;;;24.00;90.60;;;;;;5023514;28;20494;-57
2023/07/13 01:21:23;;;;;;;11.82;5.45;;;24.00;90.60;;;;;;5023362;28;20030;-57
2023/07/13 01:23:49;;;;;;;10.48;5.20;;;24.00;90.60;;;;;;5027618;28;20089;-56
2023/07/13 01:26:15;;;;;;;9.90;4.57;;;24.00;90.60;;;;;;5029402;28;20029;-56
2023/07/13 01:28:40;;;;;;;11.30;5.43;;;24.00;90.50;;;;;;5029880;28;20470;-56
2023/07/13 01:31:06;;;;;;;8.57;5.40;;;24.00;90.50;;;;;;5016916;28;20025;-57
2023/07/13 01:33:31;;;;;;;9.32;5.13;;;24.00;90.50;;;;;;5029456;28;20029;-57
2023/07/13 01:35:59;;;;;;;7.60;4.97;;;24.00;90.50;;;;;;5014367;28;20030;-57
2023/07/13 01:38:24;;;;;;;8.32;4.60;;;23.90;90.50;;;;;;5024342;28;20035;-56
2023/07/13 01:40:51;;;;;;;10.18;4.45;;;23.90;90.80;;;;;;5026168;28;20032;-57
2023/07/13 01:43:17;;;;;;;9.05;4.55;;;23.90;90.50;;;;;;5008580;28;20042;-57
2023/07/13 01:45:43;;;;;;;7.90;4.50;;;23.90;90.80;;;;;;5007790;28;20030;-56
2023/07/13 01:48:09;;;;;;;9.40;4.47;;;23.90;90.60;;;;;;5028124;28;20030;-56
2023/07/13 01:50:35;;;;;;;8.98;4.53;;;23.90;90.60;;;;;;5020848;28;20061;-57
2023/07/13 01:53:01;;;;;;;8.48;4.55;;;23.80;90.60;;;;;;5024147;28;20027;-57
2023/07/13 01:55:27;;;;;;;10.35;4.43;;;23.80;90.60;;;;;;5005819;28;20077;-56
2023/07/13 01:57:53;;;;;;;9.18;5.07;;;23.80;90.70;;;;;;5027158;28;20042;-57
2023/07/13 02:00:18;;;;;;;7.53;4.65;;;23.80;90.60;;;;;;5027428;28;20045;-57
2023/07/13 02:02:44;;;;;;;12.52;7.65;;;23.80;90.60;;;;;;5023126;28;20030;-57
2023/07/13 02:05:10;;;;;;;8.23;6.00;;;23.80;90.60;;;;;;5026821;28;20109;-56
2023/07/13 02:07:36;;;;;;;10.40;5.70;;;23.80;90.60;;;;;;5027238;28;20041;-57
2023/07/13 02:10:02;;;;;;;13.25;5.75;;;23.80;90.60;;;;;;5028217;28;20085;-57
2023/07/13 02:12:27;;;;;;;12.40;5.60;;;23.80;90.70;;;;;;5028490;28;20085;-57
2023/07/13 02:14:53;;;;;;;12.38;6.15;;;23.80;90.70;;;;;;5024322;28;20072;-57
2023/07/13 02:17:18;;;;;;;12.77;5.97;;;23.80;90.70;;;;;;5013845;28;20054;-56
2023/07/13 02:19:44;;;;;;;12.65;5.95;;;23.80;91.00;;;;;;5025568;28;20033;-57
2023/07/13 02:22:09;;;;;;;12.77;6.43;;;23.80;90.90;;;;;;5026622;28;20077;-57
2023/07/13 02:24:35;;;;;;;10.57;6.07;;;23.80;90.70;;;;;;5027727;28;20506;-57
2023/07/13 02:27:01;;;;;;;11.50;6.25;;;23.70;90.70;;;;;;5028333;28;20022;-57
2023/07/13 02:29:26;;;;;;;9.85;6.55;;;23.70;90.70;;;;;;5026902;28;20033;-57
2023/07/13 02:31:52;;;;;;;8.10;7.13;;;23.70;90.70;;;;;;5025051;28;20030;-57
2023/07/13 02:34:17;;;;;;;10.35;6.50;;;23.70;90.80;;;;;;5021213;28;20487;-58
2023/07/13 02:36:43;;;;;;;9.52;6.07;;;23.70;90.80;;;;;;5015761;28;20465;-57
2023/07/13 02:39:08;;;;;;;9.20;6.07;;;23.70;90.90;;;;;;5025314;28;20478;-58
2023/07/13 02:41:34;;;;;;;12.57;5.95;;;23.70;90.90;;;;;;5015123;28;20053;-57
2023/07/13 02:44:03;;;;;;;10.52;6.32;;;23.70;90.90;;;;;;5025458;28;20080;-58
2023/07/13 02:46:38;;;;;;;7.13;5.60;;;23.60;90.90;;;;;;5025455;28;20026;-57
2023/07/13 02:49:03;;;;;;;11.73;5.90;;;23.60;90.90;;;;;;5025896;28;20113;-58
2023/07/13 02:51:29;;;;;;;13.95;5.82;;;23.60;91.00;;;;;;5026329;28;20026;-57
2023/07/13 02:53:55;;;;;;;13.88;6.65;;;23.60;91.00;;;;;;5026151;28;20030;-57
2023/07/13 02:56:25;;;;;;;8.43;5.75;;;23.60;91.00;;;;;;5009176;28;20084;-58
2023/07/13 02:58:50;;;;;;;13.30;5.75;;;23.70;91.10;;;;;;5026307;28;20041;-58
2023/07/13 03:01:18;;;;;;;7.55;5.60;;;23.60;91.10;;;;;;5026153;28;20033;-57
2023/07/13 03:03:45;;;;;;;10.45;5.72;;;23.60;91.10;;;;;;5027013;28;20057;-57
2023/07/13 03:06:11;;;;;;;8.48;5.35;;;23.60;91.00;;;;;;5025362;28;20030;-57
2023/07/13 03:08:36;;;;;;;6.70;5.15;;;23.60;91.10;;;;;;5025404;28;20045;-57
2023/07/13 03:11:10;;;;;;;10.43;5.57;;;23.50;91.00;;;;;;5026838;28;20038;-57
2023/07/13 03:13:36;;;;;;;8.48;5.35;;;23.50;91.00;;;;;;5024302;28;20032;-57
2023/07/13 03:16:02;;;;;;;9.98;5.15;;;23.50;91.10;;;;;;5025369;28;20169;-57
2023/07/13 03:18:27;;;;;;;7.75;5.38;;;23.50;91.10;;;;;;5027263;28;20041;-57
2023/07/13 03:20:53;;;;;;;9.68;5.35;;;23.50;91.10;;;;;;5026685;28;20030;-58
2023/07/13 03:23:19;;;;;;;9.65;5.70;;;23.50;91.20;;;;;;5025342;28;20417;-57
2023/07/13 03:25:45;;;;;;;9.93;7.28;;;23.50;91.20;;;;;;5020030;28;20026;-57
2023/07/13 03:28:11;;;;;;;29.05;8.73;;;23.40;91.20;;;;;;5005926;28;20066;-57
2023/07/13 03:30:36;;;;;;;87.90;13.52;;;23.40;91.20;;;;;;5019775;28;20072;-57
2023/07/13 03:33:02;;;;;;;43.80;10.82;;;23.40;91.30;;;;;;5022852;28;20033;-57
2023/07/13 03:35:28;;;;;;;31.38;8.85;;;23.40;91.40;;;;;;5023788;28;20044;-57
2023/07/13 03:37:53;;;;;;;31.52;8.15;;;23.40;91.40;;;;;;5025893;28;20037;-57
2023/07/13 03:40:19;;;;;;;25.98;8.20;;;23.40;91.30;;;;;;5025985;28;20109;-57
2023/07/13 03:42:44;;;;;;;36.15;8.85;;;23.40;91.20;;;;;;5004554;28;20041;-57
2023/07/13 03:45:10;;;;;;;22.63;8.25;;;23.40;91.10;;;;;;5028947;28;20018;-57
2023/07/13 03:47:35;;;;;;;30.75;7.18;;;23.40;91.10;;;;;;5025540;28;20029;-57
2023/07/13 03:50:01;;;;;;;29.95;7.53;;;23.40;91.10;;;;;;5015643;28;20034;-57
2023/07/13 03:52:26;;;;;;;32.80;7.43;;;23.40;91.10;;;;;;5002228;28;20026;-57
2023/07/13 03:54:52;;;;;;;32.40;8.20;;;23.30;91.10;;;;;;5010099;28;20109;-57
2023/07/13 03:57:18;;;;;;;20.13;7.30;;;23.30;91.10;;;;;;5023868;28;20057;-57
2023/07/13 03:59:43;;;;;;;20.75;7.43;;;23.30;91.10;;;;;;5018102;28;20042;-57
2023/07/13 04:02:09;;;;;;;30.20;7.40;;;23.30;91.10;;;;;;5016207;28;20065;-57
2023/07/13 04:04:35;;;;;;;47.75;8.30;;;23.30;91.10;;;;;;5024729;28;20022;-57
2023/07/13 04:07:00;;;;;;;32.08;7.95;;;23.30;91.10;;;;;;5025193;28;20026;-58
2023/07/13 04:09:26;;;;;;;27.90;7.18;;;23.30;91.10;;;;;;5024563;28;20022;-57
2023/07/13 04:11:52;;;;;;;28.50;7.25;;;23.30;91.10;;;;;;5006901;28;20040;-57
2023/07/13 04:14:17;;;;;;;24.75;6.68;;;23.30;91.00;;;;;;4989873;28;20030;-57
2023/07/13 04:16:43;;;;;;;18.95;6.28;;;23.30;91.00;;;;;;5025340;28;20030;-57
2023/07/13 04:19:10;;;;;;;21.15;6.45;;;23.30;91.30;;;;;;5005119;28;20069;-57
2023/07/13 04:21:35;;;;;;;24.02;7.10;;;23.30;91.00;;;;;;5031070;28;20037;-57
2023/07/13 04:24:01;;;;;;;16.70;6.32;;;23.30;91.00;;;;;;5024770;28;20045;-57
2023/07/13 04:26:26;;;;;;;23.08;6.82;;;23.30;91.00;;;;;;5025484;28;20501;-57
2023/07/13 04:28:52;;;;;;;14.73;5.55;;;23.30;91.10;;;;;;5024339;28;20037;-57
2023/07/13 04:31:17;;;;;;;19.75;6.32;;;23.20;91.10;;;;;;5012783;28;20059;-57
2023/07/13 04:33:43;;;;;;;17.30;6.45;;;23.30;91.10;;;;;;5006792;28;20057;-57
2023/07/13 04:36:09;;;;;;;14.82;5.78;;;23.20;91.10;;;;;;5019345;28;20044;-57
2023/07/13 04:38:34;;;;;;;20.30;5.30;;;23.20;91.30;;;;;;5023393;28;20153;-57
2023/07/13 04:41:01;;;;;;;21.02;6.20;;;23.20;91.20;;;;;;5016197;28;20034;-57
2023/07/13 04:43:27;;;;;;;14.35;5.63;;;23.20;91.20;;;;;;5024971;28;20030;-57
2023/07/13 04:45:53;;;;;;;14.90;5.43;;;23.20;91.20;;;;;;5024910;28;20044;-57
2023/07/13 04:48:18;;;;;;;12.50;5.35;;;23.20;91.20;;;;;;5025471;28;20088;-57
2023/07/13 04:50:45;;;;;;;14.73;5.13;;;23.20;91.30;;;;;;5026398;28;20045;-57
2023/07/13 04:53:11;;;;;;;12.98;5.00;;;23.20;91.30;;;;;;5024809;28;20033;-57
2023/07/13 04:55:37;;;;;;;11.32;4.45;;;23.20;91.30;;;;;;5025831;28;20025;-57
2023/07/13 04:58:02;;;;;;;16.95;5.40;;;23.20;91.30;;;;;;5026506;28;20037;-57
2023/07/13 05:00:28;;;;;;;15.57;5.20;;;23.20;91.30;;;;;;5016515;28;20037;-57
2023/07/13 05:02:55;;;;;;;11.10;4.88;;;23.20;91.40;;;;;;5023793;28;20030;-57
2023/07/13 05:05:20;;;;;;;16.30;5.15;;;23.20;91.40;;;;;;5028042;28;20029;-57
2023/07/13 05:07:46;;;;;;;17.23;4.80;;;23.10;91.40;;;;;;5027688;28;20044;-57
2023/07/13 05:10:11;;;;;;;13.40;4.40;;;23.10;91.40;;;;;;5010771;28;20106;-57
2023/07/13 05:12:37;;;;;;;9.15;4.28;;;23.10;91.50;;;;;;5028238;28;20030;-57
2023/07/13 05:15:03;;;;;;;17.92;4.60;;;23.10;91.50;;;;;;5010242;28;20030;-57
2023/07/13 05:17:28;;;;;;;10.60;4.30;;;23.10;91.50;;;;;;5012992;28;20030;-57
2023/07/13 05:19:54;;;;;;;9.63;4.22;;;23.10;91.50;;;;;;5028968;28;20048;-57
2023/07/13 05:22:20;;;;;;;15.43;5.00;;;23.10;91.50;;;;;;5029295;28;20041;-57
2023/07/13 05:24:45;;;;;;;6.35;3.85;;;23.10;91.50;;;;;;5026411;28;20045;-57
2023/07/13 05:27:11;;;;;;;15.60;4.55;;;23.10;91.50;;;;;;5027944;28;20060;-57
2023/07/13 05:29:36;;;;;;;8.95;4.15;;;23.10;91.40;;;;;;5028300;28;20033;-57
2023/07/13 05:32:03;;;;;;;6.93;3.63;;;23.10;91.40;;;;;;5029206;28;20430;-57
2023/07/13 05:34:29;;;;;;;7.85;3.50;;;23.10;91.40;;;;;;5028771;28;20022;-57
2023/07/13 05:36:54;;;;;;;9.27;3.75;;;23.10;91.40;;;;;;5027736;28;20032;-57
2023/07/13 05:39:20;;;;;;;7.75;3.40;;;23.00;91.40;;;;;;5027847;28;20441;-57
2023/07/13 05:41:45;;;;;;;9.07;3.67;;;23.00;91.50;;;;;;5027436;28;20038;-57
2023/07/13 05:44:11;;;;;;;6.05;3.42;;;23.00;91.50;;;;;;5027632;28;20056;-57
2023/07/13 05:46:36;;;;;;;5.88;3.78;;;22.90;91.60;;;;;;5027641;28;20032;-57
2023/07/13 05:49:03;;;;;;;5.50;2.55;;;22.90;91.70;;;;;;5028923;28;20121;-57
2023/07/13 05:51:29;;;;;;;4.70;3.10;;;22.90;91.90;;;;;;5024624;28;20049;-56
2023/07/13 05:53:55;;;;;;;3.90;2.65;;;22.80;92.10;;;;;;5027536;28;20026;-56
2023/07/13 05:56:20;;;;;;;5.70;2.85;;;22.80;92.20;;;;;;5007422;28;20034;-57
2023/07/13 05:58:48;;;;;;;8.57;2.75;;;22.70;92.30;;;;;;5009065;28;20049;-57
2023/07/13 06:01:13;;;;;;;9.95;2.85;;;22.70;92.30;;;;;;5031242;28;20042;-57
2023/07/13 06:03:39;;;;;;;8.27;2.92;;;22.70;92.40;;;;;;5026582;28;20036;-56
2023/07/13 06:06:05;;;;;;;7.03;3.03;;;22.70;92.50;;;;;;5025860;28;20042;-57
2023/07/13 06:08:31;;;;;;;8.60;3.30;;;22.70;92.50;;;;;;5010813;28;20508;-57
2023/07/13 06:11:08;;;;;;;7.88;3.08;;;22.70;92.50;;;;;;5009895;28;20058;-57
2023/07/13 06:13:33;;;;;;;6.90;2.78;;;22.70;92.60;;;;;;5026934;28;20030;-57
2023/07/13 06:15:59;;;;;;;8.20;3.33;;;22.70;92.70;;;;;;5026663;28;20034;-57
2023/07/13 06:18:25;;;;;;;19.63;3.50;;;22.70;92.80;;;;;;5019408;28;20072;-57
2023/07/13 06:20:50;;;;;;;21.90;3.17;;;22.70;92.80;;;;;;5016282;28;20081;-57
2023/07/13 06:23:16;;;;;;;11.80;3.78;;;22.70;92.90;;;;;;5013330;28;20168;-57
2023/07/13 06:25:43;;;;;;;24.38;4.15;;;22.70;92.90;;;;;;5008411;28;20030;-57
2023/07/13 06:28:08;;;;;;;14.68;3.78;;;22.70;92.80;;;;;;5023019;28;20031;-57
2023/07/13 06:30:34;;;;;;;18.25;3.50;;;22.70;92.80;;;;;;5007094;28;20113;-57
2023/07/13 06:32:59;;;;;;;24.50;4.32;;;22.70;92.60;;;;;;5023526;28;20022;-57
2023/07/13 06:35:25;;;;;;;83.30;11.00;;;22.80;92.60;;;;;;5023471;28;20034;-57
2023/07/13 06:37:50;;;;;;;39.03;6.20;;;22.80;92.80;;;;;;5023221;28;20050;-57
2023/07/13 06:40:17;;;;;;;51.08;7.35;;;22.80;92.70;;;;;;5023353;28;20018;-57
2023/07/13 06:42:42;;;;;;;66.93;8.93;;;22.80;92.60;;;;;;5023096;28;20040;-57
2023/07/13 06:45:08;;;;;;;28.98;5.57;;;22.80;92.50;;;;;;5023610;28;20086;-57
2023/07/13 06:47:34;;;;;;;30.73;5.82;;;22.80;92.50;;;;;;5015441;28;20026;-57
2023/07/13 06:50:00;;;;;;;31.73;5.60;;;22.80;92.70;;;;;;5027029;28;20098;-57
2023/07/13 06:52:25;;;;;;;23.13;5.57;;;22.80;92.30;;;;;;5026584;28;20030;-56
2023/07/13 06:54:51;;;;;;;31.38;5.90;;;22.80;92.20;;;;;;5011554;28;20169;-56
2023/07/13 06:57:16;;;;;;;27.10;5.00;;;22.80;92.20;;;;;;5026216;28;20026;-57
2023/07/13 06:59:42;;;;;;;20.17;4.95;;;22.80;92.10;;;;;;5025882;28;20038;-57
2023/07/13 07:02:09;;;;;;;23.95;4.97;;;22.80;92.10;;;;;;5017320;28;20526;-57
2023/07/13 07:04:35;;;;;;;22.73;4.93;;;22.80;92.00;;;;;;5002147;28;20044;-57
2023/07/13 07:07:00;;;;;;;26.17;5.05;;;22.80;92.00;;;;;;5026896;28;20425;-57
2023/07/13 07:09:26;;;;;;;24.15;4.43;;;22.80;92.00;;;;;;5009449;28;20094;-57
2023/07/13 07:11:52;;;;;;;18.65;4.25;;;22.80;92.00;;;;;;5025442;28;20025;-57
2023/07/13 07:14:17;;;;;;;34.63;6.07;;;22.80;92.00;;;;;;5004747;28;20023;-57
2023/07/13 07:16:43;;;;;;;46.22;6.35;;;22.80;92.00;;;;;;5009833;28;20043;-56
2023/07/13 07:19:08;;;;;;;134.77;14.85;;;22.80;92.10;;;;;;5024606;28;20041;-56
2023/07/13 07:21:34;;;;;;;33.03;6.95;;;22.80;92.10;;;;;;5024071;28;20030;-57
2023/07/13 07:23:59;;;;;;;26.20;5.47;;;22.90;92.00;;;;;;5026754;28;20433;-57
2023/07/13 07:26:25;;;;;;;31.25;5.13;;;22.90;91.90;;;;;;5026260;28;20033;-57
2023/07/13 07:28:51;;;;;;;35.58;6.65;;;22.90;91.80;;;;;;5009198;28;20053;-57
2023/07/13 07:31:19;;;;;;;26.23;6.47;;;22.90;91.70;;;;;;5023553;28;20030;-57
2023/07/13 07:33:45;;;;;;;36.83;8.05;;;22.90;91.70;;;;;;5023744;28;20049;-54
2023/07/13 07:36:11;;;;;;;24.50;6.72;;;22.90;91.60;;;;;;5019813;28;20029;-53
2023/07/13 07:38:37;;;;;;;40.25;8.02;;;22.90;91.50;;;;;;5020665;28;20112;-54
2023/07/13 07:41:04;;;;;;;32.63;7.47;;;22.90;91.50;;;;;;5025415;28;20048;-53
2023/07/13 07:43:30;;;;;;;31.23;7.85;;;23.00;91.40;;;;;;5025244;28;20040;-54
2023/07/13 07:45:55;;;;;;;30.63;7.28;;;23.00;91.30;;;;;;5024937;28;20053;-54
2023/07/13 07:48:21;;;;;;;32.90;7.97;;;23.00;91.30;;;;;;5024934;28;20030;-54
2023/07/13 07:50:46;;;;;;;42.08;9.55;;;23.00;91.50;;;;;;5023996;28;20034;-53
2023/07/13 07:53:12;;;;;;;45.88;8.43;;;23.00;91.10;;;;;;5007210;28;20022;-54
2023/07/13 07:55:38;;;;;;;42.38;8.77;;;23.00;90.90;;;;;;5025597;28;20049;-53
2023/07/13 07:58:04;;;;;;;39.67;9.45;;;23.10;90.80;;;;;;5010929;28;20061;-54
2023/07/13 08:00:31;;;;;;;49.28;8.68;;;23.10;90.60;;;;;;5023571;28;20037;-54
2023/07/13 08:02:57;;;;;;;39.88;7.82;;;23.10;90.50;;;;;;5021397;28;20031;-54
2023/07/13 08:05:22;;;;;;;35.10;7.78;;;23.10;90.30;;;;;;5011172;28;20049;-53
2023/07/13 08:07:48;;;;;;;36.55;6.95;;;23.10;90.20;;;;;;5024692;28;20058;-54
2023/07/13 08:10:13;;;;;;;80.80;9.23;;;23.10;90.10;;;;;;5014892;28;20081;-53
2023/07/13 08:12:39;;;;;;;51.60;8.23;;;23.10;90.10;;;;;;5027802;28;20018;-54
2023/07/13 08:15:06;;;;;;;39.00;7.45;;;23.20;90.00;;;;;;5023292;28;20401;-54
2023/07/13 08:17:31;;;;;;;29.80;7.00;;;23.20;89.80;;;;;;5023739;28;20026;-54
2023/07/13 08:19:57;;;;;;;47.65;7.93;;;23.20;89.60;;;;;;5024577;28;20030;-53
2023/07/13 08:22:22;;;;;;;37.83;7.10;;;23.20;89.60;;;;;;5018764;28;20033;-53
2023/07/13 08:24:55;;;;;;;35.75;7.38;;;23.30;89.50;;;;;;5019679;28;20026;-54
2023/07/13 08:27:20;;;;;;;48.50;8.02;;;23.30;89.40;;;;;;5012046;28;20110;-53
2023/07/13 08:29:47;;;;;;;51.55;8.60;;;23.30;89.10;;;;;;5020778;28;20038;-54
2023/07/13 08:32:13;;;;;;;47.70;9.45;;;23.30;88.90;;;;;;5005249;28;20030;-54
2023/07/13 08:34:39;;;;;;;70.13;9.40;;;23.40;88.60;;;;;;5015567;28;20041;-54
2023/07/13 08:37:05;;;;;;;62.88;10.55;;;23.40;88.00;;;;;;5028376;28;20029;-53
2023/07/13 08:39:31;;;;;;;60.35;10.27;;;23.30;88.00;;;;;;5012117;28;20128;-53
2023/07/13 08:42:00;;;;;;;63.65;10.10;;;23.40;88.00;;;;;;5029211;28;20068;-53
2023/07/13 08:44:52;;;;;;;77.30;10.77;;;23.40;87.90;;;;;;5028336;28;20089;-53
2023/07/13 08:47:17;;;;;;;69.55;10.57;;;23.40;87.70;;;;;;5027666;28;20132;-53
2023/07/13 08:49:43;;;;;;;102.53;13.77;;;23.50;87.70;;;;;;5029569;28;20034;-54
2023/07/13 08:52:14;;;;;;;83.00;11.25;;;23.50;87.70;;;;;;5027418;28;20081;-53
2023/07/13 08:54:43;;;;;;;90.20;12.65;;;23.50;87.60;;;;;;5028535;28;20044;-53
2023/07/13 08:57:14;;;;;;;96.18;14.30;;;23.50;87.50;;;;;;5012129;28;20090;-54
2023/07/13 08:59:40;;;;;;;105.15;14.50;;;23.50;87.50;;;;;;5011874;28;20080;-53
2023/07/13 09:02:27;;;;;;;111.47;14.00;;;23.60;87.50;;;;;;5024721;28;20097;-53
2023/07/13 09:05:16;;;;;;;118.78;17.55;;;23.60;87.50;;;;;;5022565;28;20137;-53
2023/07/13 09:08:05;;;;;;;105.18;13.15;;;23.60;87.50;;;;;;5009550;28;20037;-54
2023/07/13 09:10:37;;;;;;;110.53;13.88;;;23.60;87.40;;;;;;4997280;28;20046;-53
2023/07/13 09:13:24;;;;;;;102.38;13.70;;;23.60;87.30;;;;;;4992776;28;20062;-53
2023/07/13 09:15:49;;;;;;;95.70;13.63;;;23.70;87.30;;;;;;5009850;28;20041;-53
2023/07/13 09:18:34;;;;;;;107.72;14.57;;;23.60;87.10;;;;;;4993400;28;20026;-53
2023/07/13 09:21:29;;;;;;;138.40;14.63;;;23.70;87.20;;;;;;5026295;28;20062;-53
2023/07/13 09:23:58;;;;;;;121.97;15.95;;;23.70;86.80;;;;;;5022444;28;20027;-53
2023/07/13 09:26:24;;;;;;;99.93;13.60;;;23.80;86.90;;;;;;5020896;28;20521;-53
2023/07/13 09:29:03;;;;;;;145.70;17.55;;;23.80;86.80;;;;;;5023915;28;20025;-56
2023/07/13 09:31:39;;;;;;;139.93;16.05;;;23.80;86.80;;;;;;5018592;28;20042;-56
2023/07/13 09:34:07;;;;;;;;;;;23.80;86.80;;;;;;5009877;28;20022;-57
2023/07/13 09:36:34;;;;;;;91.43;14.27;;;23.90;86.80;;;;;;5010170;28;19914;-57
2023/07/13 09:39:19;;;;;;;95.30;14.45;;;23.90;86.70;;;;;;5008525;28;20132;-57
2023/07/13 09:41:57;;;;;;;113.80;14.05;;;24.00;86.70;;;;;;5025289;28;20143;-56
2023/07/13 09:44:30;;;;;;;87.47;12.63;;;24.00;86.60;;;;;;5028780;28;20038;-56
2023/07/13 09:46:56;;;;;;;76.57;11.23;;;24.10;86.50;;;;;;5027293;28;20482;-56
2023/07/13 09:49:26;;;;;;;94.28;12.55;;;24.10;86.40;;;;;;5007389;28;20097;-56
2023/07/13 09:52:04;;;;;;;78.10;12.38;;;24.10;86.30;;;;;;5024590;28;20076;-56
2023/07/13 09:54:33;;;;;;;103.07;12.52;;;24.10;86.20;;;;;;5026360;28;20034;-56
2023/07/13 09:56:59;;;;;;;83.03;12.00;;;24.20;86.10;;;;;;5026737;28;20022;-57
2023/07/13 09:59:36;;;;;;;66.32;9.73;;;24.20;86.00;;;;;;5026527;28;20066;-56
2023/07/13 10:02:02;;;;;;;56.58;9.10;;;24.30;85.40;;;;;;5020556;28;20120;-56
2023/07/13 10:04:32;;;;;;;52.40;6.95;;;24.20;85.00;;;;;;5024767;28;20066;-56
2023/07/13 10:07:08;;;;;;;58.67;7.75;;;24.20;84.50;;;;;;5021120;28;20106;-56
2023/07/13 10:09:34;;;;;;;46.35;6.68;;;24.10;84.30;;;;;;5022849;28;20058;-56
2023/07/13 10:11:59;;;;;;;33.00;5.75;;;24.10;84.30;;;;;;5034149;28;20049;-57
2023/07/13 10:14:27;;;;;;;38.45;6.32;;;24.00;84.20;;;;;;5021683;28;20026;-57
2023/07/13 10:17:01;;;;;;;56.70;6.43;;;24.00;84.40;;;;;;5020053;28;20065;-57
2023/07/13 10:19:32;;;;;;;61.30;7.32;;;24.00;84.60;;;;;;4989793;28;20038;-57
2023/07/13 10:22:03;;;;;;;43.20;5.95;;;23.90;84.60;;;;;;5018466;28;20107;-56
2023/07/13 10:24:31;;;;;;;30.27;4.40;;;23.90;84.90;;;;;;5015693;28;20038;-56
2023/07/13 10:27:16;;;;;;;26.65;3.58;;;23.80;85.10;;;;;;5022497;28;20125;-56
2023/07/13 10:29:46;;;;;;;21.30;3.50;;;23.80;85.30;;;;;;5013268;28;20061;-56
2023/07/13 10:32:12;;;;;;;21.52;4.03;;;23.80;85.40;;;;;;5023312;28;20030;-55
2023/07/13 10:34:37;;;;;;;32.40;5.03;;;23.90;85.60;;;;;;5008384;28;20112;-56
2023/07/13 10:37:03;;;;;;;30.17;5.20;;;23.90;85.80;;;;;;4994583;28;20026;-56
2023/07/13 10:39:29;;;;;;;29.42;5.63;;;23.90;86.00;;;;;;5007770;28;20030;-56
2023/07/13 10:41:59;;;;;;;15.73;3.90;;;23.90;86.00;;;;;;5024726;28;20462;-57
2023/07/13 10:44:28;;;;;;;13.07;3.58;;;23.90;85.80;;;;;;5015353;28;20030;-57
2023/07/13 10:46:55;;;;;;;27.23;4.05;;;24.00;85.80;;;;;;5019176;28;20035;-56
2023/07/13 10:49:21;;;;;;;24.02;4.00;;;24.00;85.90;;;;;;4991893;28;20065;-57
2023/07/13 10:51:47;;;;;;;47.92;5.75;;;24.00;85.80;;;;;;5008403;28;20018;-56
2023/07/13 10:54:27;;;;;;;45.75;5.57;;;24.00;85.70;;;;;;5025331;28;20029;-56
2023/07/13 10:57:08;;;;;;;33.50;5.90;;;24.10;85.50;;;;;;5026054;28;20029;-56
2023/07/13 10:59:33;;;;;;;56.63;6.05;;;24.10;85.40;;;;;;5026452;28;20038;-56
2023/07/13 11:02:02;;;;;;;41.33;6.63;;;24.10;85.10;;;;;;4991734;28;20026;-56
2023/07/13 11:04:29;;;;;;;126.28;15.40;;;24.20;84.90;;;;;;5017873;28;20490;-56
2023/07/13 11:06:59;;;;;;;75.03;10.15;;;24.20;84.50;;;;;;5025754;28;20026;-56
2023/07/13 11:09:44;;;;;;;58.33;7.30;;;24.20;84.20;;;;;;5024271;28;20033;-56
2023/07/13 11:12:31;;;;;;;33.83;5.63;;;24.30;83.90;;;;;;5022943;28;20033;-56
2023/07/13 11:14:59;;;;;;;37.60;5.95;;;24.40;83.30;;;;;;5014722;28;20038;-56
2023/07/13 11:17:27;;;;;;;26.52;3.58;;;24.40;81.80;;;;;;5025641;28;20026;-56
2023/07/13 11:19:53;;;;;;;29.02;4.05;;;24.40;80.40;;;;;;5026691;28;20034;-56
2023/07/13 11:22:24;;;;;;;31.25;5.25;;;24.40;80.60;;;;;;5009127;28;20048;-56
2023/07/13 11:25:06;;;;;;;37.85;6.00;;;24.40;80.80;;;;;;5007002;28;20537;-56
2023/07/13 11:27:36;;;;;;;25.00;3.88;;;24.40;80.70;;;;;;5020731;28;20026;-56
2023/07/13 11:30:20;;;;;;;25.95;4.63;;;24.50;80.40;;;;;;5021838;28;20025;-56
2023/07/13 11:32:46;;;;;;;53.25;6.70;;;24.50;80.20;;;;;;5024865;28;20022;-56
2023/07/13 11:35:17;;;;;;;74.78;9.13;;;24.50;79.30;;;;;;5024891;28;20105;-56
2023/07/13 11:37:44;;;;;;;40.75;6.53;;;24.50;79.50;;;;;;5010048;28;20026;-56
2023/07/13 11:40:14;;;;;;;39.10;5.30;;;24.50;79.60;;;;;;5020135;28;20110;-56
2023/07/13 11:42:39;;;;;;;20.15;4.15;;;24.50;79.40;;;;;;5014036;28;20030;-56
2023/07/13 11:45:19;;;;;;;24.73;3.78;;;24.50;78.90;;;;;;5045904;28;20030;-56
2023/07/13 11:47:49;;;;;;;15.52;3.42;;;24.50;77.70;;;;;;5010827;28;20095;-56
2023/07/13 11:50:22;;;;;;;29.25;4.45;;;24.60;77.10;;;;;;5004012;28;20036;-56
2023/07/13 11:52:50;;;;;;;32.60;5.45;;;24.60;76.90;;;;;;5006090;28;20022;-56
2023/07/13 11:55:17;;;;;;;27.50;4.32;;;24.60;77.00;;;;;;5023977;28;20030;-56
2023/07/13 11:58:01;;;;;;;26.63;4.07;;;24.60;77.60;;;;;;5023862;28;20050;-56
2023/07/13 12:00:29;;;;;;;19.02;3.53;;;24.70;78.10;;;;;;5024465;28;20038;-56
2023/07/13 12:02:56;;;;;;;37.88;5.35;;;24.70;78.60;;;;;;5015919;28;20027;-56
2023/07/13 12:05:22;;;;;;;24.95;3.90;;;24.80;79.30;;;;;;5025887;28;20034;-56
2023/07/13 12:07:48;;;;;;;19.55;3.20;;;24.80;78.50;;;;;;4993071;28;20088;-56
2023/07/13 12:10:28;;;;;;;20.60;3.58;;;24.80;78.70;;;;;;5009183;28;20051;-56
2023/07/13 12:13:08;;;;;;;24.83;4.63;;;24.80;79.00;;;;;;5017047;28;20434;-56
2023/07/13 12:15:40;;;;;;;26.55;4.65;;;24.90;79.40;;;;;;5005459;28;20393;-56
2023/07/13 12:18:24;;;;;;;27.90;4.95;;;24.90;79.60;;;;;;5023905;28;20105;-56
2023/07/13 12:20:50;;;;;;;24.13;3.95;;;25.00;79.00;;;;;;5014951;28;20030;-56
2023/07/13 12:23:25;;;;;;;34.10;4.40;;;25.10;78.60;;;;;;5001429;28;20410;-56
2023/07/13 12:25:51;;;;;;;29.45;4.22;;;25.20;78.30;;;;;;5038965;28;20030;-55
2023/07/13 12:28:36;;;;;;;19.83;4.07;;;25.30;77.40;;;;;;5020403;28;20041;-56
2023/07/13 12:31:06;;;;;;;17.80;3.70;;;25.30;76.90;;;;;;5024436;28;20026;-56
2023/07/13 12:33:32;;;;;;;20.20;3.78;;;25.30;76.40;;;;;;5023671;28;20030;-56
2023/07/13 12:36:01;;;;;;;18.92;2.90;;;25.40;75.70;;;;;;5023421;28;20030;-56
2023/07/13 12:38:27;;;;;;;16.42;2.60;;;25.40;75.40;;;;;;5004111;28;20106;-56
2023/07/13 12:40:52;;;;;;;23.52;3.67;;;25.40;75.20;;;;;;5007469;28;20057;-56